Portada
METAR-TAF:

METAR-TAF

Aeroports :

Foggia, Itàlia

latitud: 41-25-58N, longitud: 015-32-06E, altitud: 81 m

Observació

L'informe es va fer fa 2 hores i 45 minuts, a les 20:50 UTC
Vent 8 kt del Oest/Nord-Oest
Temperatura 30°C
Humitat 55%
Pressió 1016 hPa
Visibilitat 10 km o més
sense núvols per sota de 1500 mi sense presència de cumulonimbus.

METAR: LIBF 182050Z 30008KT CAVOK 30/20 Q1016

Hora: 01:35 (23:35 UTC)

Pronòstic

L'informe es va fer fa 6 hores i 35 minuts, a les 17:00 UTC
Pronòstic vàlid del 18 a les 18 UTC al 19 a les 18 UTC
Vent 10 kt del Nord/Nord-Oest
Visibilitat 10 km o més
sense núvols per sota de 1500 mi sense presència de cumulonimbus.
Evolucionant progressivament
l' 18 a les 18 UTC al 18 a les 20 UTC
Vent 8 kt del Oest
Evolucionant progressivament
l' 19 a les 05 UTC al 19 a les 07 UTC
Vent 14 kt del Nord/Nord-Oest

TAF: LIBF 181700Z 1818/1918 34010KT CAVOK BECMG 1818/1820 28008KT BECMG 1905/1907 34014KT

Observacions i pronòstics meteorològics de més de 4000 aeroports (METAR i TAF).

Les estacions disponibles són els punts grocs i vermells al mapa.

Posi el ratolí al punt desitjat per veure el nom de l'estació.

Feu clic per veure les observacions i els pronòstics meteorològics.

Per canviar el mapa: feu clic els botons verds amb una creu de color negre per apropar; al botó verd amb un guió per allunyar la imatge; o en les fletxes verdes per a mapes adjacents.


METAR-TAF: